• Join FlightAware (Why Join?)
  • Login
  • US Flag 
06:26PM EDT


 

Airport Tracker/Info


-or-


 

Live Flight TrackerFlight Track Log ✈ UAL481 ✈ 09-Aug-2013 ✈ KALB - KORD

Flight Track Log - Related Links

Times and Time Zones

All times are in EDT time to prevent confusion due to time zone crossing. See the UAL481 flight status page for this flight to view local times or setup timezone preferences in your user account.

Time Position Orientation Groundspeed Altitude Reporting Facility
EDT Latitude Longitude Course Direction KTS MPH feet Rate Location/Type
06:29PM 42.7672 -73.8061 324° Northwest 160 184 1,200  Level Boston Center
06:30PM 42.7944 -73.8039 North 174 200 2,300 1,920 Climbing Boston Center
06:31PM 42.8492 -73.7683 25° Northeast 283 326 4,000 2,460 Climbing Boston Center
06:32PM 42.9028 -73.8119 329° Northwest 253 291 7,100 3,240 Climbing Boston Center
06:33PM 42.8279 -74.3031 284° West  Level FlightAware Approximate
06:33PM 42.9536 -73.9067 306° West 245 282 10,700  Level Boston Center
06:34PM 42.8496 -74.4308 283° West  Level FlightAware Approximate
06:34PM 43.0086 -74.0017 308° West 289 333 12,100  Level Boston Center
06:35PM 42.8820 -74.5487 324° Northwest  Level FlightAware Approximate
06:35PM 43.0697 -74.1056 309° West 349 402 14,800  Level Boston Center
06:36PM 43.1139 -74.2178 298° West 351 404 18,300 3,000 Climbing Boston Center
06:37PM 43.1247 -74.3261 278° West 328 377 20,900 1,980 Climbing Boston Center
06:38PM 43.1353 -74.4431 277° West 323 372 22,200 900 Climbing Boston Center
06:39PM 43.1369 -74.5742 271° West 328 377 22,800 720 Climbing Boston Center
06:40PM 43.1403 -74.7194 272° West 358 412 23,700 1,260 Climbing Boston Center
06:41PM 43.1414 -74.8731 271° West 386 444 25,300 1,440 Climbing Boston Center
06:42PM 43.1422 -75.0267 270° West 400 460 26,600 1,200 Climbing Boston Center
06:43PM 43.1444 -75.1978 271° West 406 467 27,700 660 Climbing Boston Center
06:44PM 43.1447 -75.3486 270° West 406 467 27,900 60 Climbing Boston Center
06:45PM 43.1450 -75.4994 270° West 400 460 27,900  Level Boston Center
06:46PM 43.1472 -75.6503 271° West 400 460 27,900  Level Boston Center
06:47PM 43.1481 -75.8325 270° West 400 460 27,900 360 Level Boston Center
06:49PM 43.1333 -76.0833 265° West 400 460 29,100 720 Climbing Toronto Center
06:50PM 43.1333 -76.2333 270° West 390 449 30,000 360 Climbing Toronto Center
06:51PM 43.1333 -76.3833 270° West 390 449 29,900 -60 Descending Toronto Center
06:52PM 43.1333 -76.5500 270° West 390 449 29,900  Level Toronto Center
06:53PM 43.1500 -76.6833 280° West 390 449 30,000  Climbing Toronto Center
06:54PM 43.1333 -76.8500 262° West 390 449 30,000 540 Level Toronto Center
06:55PM 43.1167 -76.9833 260° West 390 449 31,100 1,320 Climbing Toronto Center
06:56PM 43.0833 -77.1167 251° West 390 449 32,700 1,500 Climbing Toronto Center
06:57PM 43.0667 -77.2667 261° West 370 426 34,200 1,320 Climbing Toronto Center
06:58PM 43.0833 -77.4167 279° West 370 426 35,400 900 Climbing Toronto Center
06:59PM 43.0833 -77.5500 270° West 370 426 36,000 240 Climbing Toronto Center
07:00PM 43.0667 -77.7000 261° West 370 426 35,900 -60 Descending Toronto Center
07:01PM 43.0667 -77.8333 270° West 370 426 35,900  Level Toronto Center
07:02PM 43.0667 -77.9667 270° West 370 426 35,900  Level Toronto Center
07:03PM 43.0667 -78.1000 270° West 370 426 35,900  Level Toronto Center
07:04PM 43.0667 -78.2333 270° West 370 426 36,000  Climbing Toronto Center
07:05PM 43.0667 -78.3833 270° West 370 426 36,000  Level Toronto Center
07:06PM 43.0833 -78.5167 280° West 360 414 36,000 -60 Level Toronto Center
07:07PM 43.0833 -78.6500 270° West 360 414 35,900 -60 Descending Toronto Center
07:08PM 43.0667 -78.7833 260° West 360 414 35,900  Level Toronto Center
07:09PM 43.0667 -78.9333 270° West 360 414 36,000  Climbing Toronto Center
07:10PM 43.0667 -79.0667 270° West 360 414 36,000  Level Toronto Center
07:11PM 43.0667 -79.2000 270° West 360 414 36,000 -60 Level Toronto Center
07:12PM 43.0667 -79.3333 270° West 360 414 35,900 -60 Descending Toronto Center
07:13PM 43.0667 -79.4667 270° West 370 426 35,900  Level Toronto Center
07:14PM 43.0667 -79.6333 270° West 360 414 35,900  Level Toronto Center
07:15PM 43.0667 -79.7667 270° West 370 426 36,000  Climbing Toronto Center
07:16PM 43.0500 -79.9000 260° West 370 426 36,000  Level Toronto Center
07:17PM 43.0500 -80.0500 270° West 370 426 36,000 -60 Level Toronto Center
07:18PM 43.0500 -80.1833 270° West 370 426 35,900 -60 Descending Toronto Center
07:19PM 43.0500 -80.3167 270° West 360 414 35,900  Level Toronto Center
07:20PM 43.0500 -80.4500 270° West 360 414 35,900  Level Toronto Center
07:21PM 43.0500 -80.5833 270° West 360 414 35,900  Level Toronto Center
07:22PM 43.0500 -80.7333 270° West 360 414 36,000  Climbing Toronto Center
07:23PM 43.0167 -80.8667 251° West 370 426 36,000  Level Toronto Center
07:24PM 43.0167 -81.0000 270° West 360 414 36,000 -60 Level Toronto Center
07:25PM 43.0167 -81.1333 270° West 360 414 35,900 -60 Descending Toronto Center
07:26PM 43.0167 -81.3000 270° West 360 414 35,900  Level Toronto Center
07:27PM 43.0167 -81.4167 270° West 360 414 35,900  Level Toronto Center
07:28PM 43.0167 -81.5667 270° West 360 414 35,900  Level Toronto Center
07:29PM 43.0167 -81.6833 270° West 360 414 35,900  Level Toronto Center
07:30PM 43.0167 -81.8167 270° West 360 414 36,000  Climbing Toronto Center
07:31PM 43.0000 -81.9667 261° West 360 414 36,000 -60 Level Toronto Center
07:32PM 43.0000 -82.1000 270° West 360 414 35,900 -60 Descending Toronto Center
07:33PM 43.0000 -82.2500 270° West 360 414 35,900 -420 Level Toronto Center
07:34PM 43.0000 -82.3667 270° West 360 414 35,100 -900 Descending Toronto Center
07:35PM 43.0000 -82.5000 270° West 360 414 34,100 -600 Descending Toronto Center
07:36PM 42.9833 -82.6667 262° West 370 426 33,900 -60 Descending Toronto Center
07:37PM 42.9833 -82.8000 270° West 380 437 34,000 -360 Climbing Toronto Center
07:38PM 42.9833 -82.9333 270° West 370 426 33,200 -900 Descending Toronto Center
07:39PM 42.9833 -83.0667 270° West 380 437 32,200 -1,020 Descending Toronto Center
07:40PM 42.9667 -83.2333 262° West 380 437 31,200 -1,020 Descending Toronto Center
07:41PM 42.9667 -83.3667 270° West 390 449 30,200 -660 Descending Toronto Center
07:42PM 42.9667 -83.5333 270° West 380 437 29,900 -180 Descending Toronto Center
07:43PM 42.9664 -83.6931 270° West 384 442 29,900  Level Cleveland Center
07:44PM 42.9561 -83.8400 265° West 384 442 29,900  Level Cleveland Center
07:45PM 42.9414 -83.9925 263° West 389 448 29,900  Level Cleveland Center
07:46PM 42.9264 -84.1392 262° West 394 453 30,000  Climbing Cleveland Center
07:47PM 42.9194 -84.2275 264° West 398 458 29,900 -60 Descending Chicago Center
07:48PM 42.9053 -84.3781 263° West 401 461 29,900  Level Chicago Center
07:49PM 42.8894 -84.5281 262° West 402 463 29,900  Level Chicago Center
07:50PM 42.8747 -84.6781 262° West 400 460 29,900  Level Chicago Center
07:51PM 42.8586 -84.8272 262° West 399 459 29,900  Level Chicago Center
07:52PM 42.8433 -84.9792 262° West 403 464 30,000  Climbing Chicago Center
07:53PM 42.8231 -85.1611 261° West 403 464 30,000 -480 Level Chicago Center
07:54PM 42.8072 -85.3097 262° West 399 459 29,100 -1,500 Descending Chicago Center
07:55PM 42.7903 -85.4633 262° West 408 470 27,000 -1,920 Descending Chicago Center
07:56PM 42.7653 -85.6131 257° West 406 467 25,200 -1,740 Descending Chicago Center
07:57PM 42.7389 -85.7564 256° West 392 451 23,500 -1,560 Descending Chicago Center
07:58PM 42.7144 -85.8997 257° West 388 447 22,000 -1,500 Descending Chicago Center
07:59PM 42.6889 -86.0372 256° West 378 435 20,500 -1,020 Descending Chicago Center
08:00PM 42.6592 -86.2003 256° West 371 427 20,000 -300 Descending Chicago Center
08:01PM 42.6336 -86.3336 255° West 366 421 20,000 -420 Level Chicago Center
08:02PM 42.6083 -86.4672 256° West 366 421 19,200 -1,260 Descending Chicago Center
08:03PM 42.5833 -86.6000 256° West 364 419 17,400 -1,860 Descending Chicago Center
08:04PM 42.5589 -86.7314 256° West 361 415 15,400 -1,980 Descending Chicago Center
08:05PM 42.5256 -86.8553 250° West 353 406 13,400 -2,160 Descending Chicago Center
08:06PM 42.4872 -86.9975 250° West 336 387 11,000 -1,680 Descending Chicago Center
08:07PM 42.4542 -87.1133 249° West 330 380 10,000 -540 Descending Chicago Center
08:08PM 42.4247 -87.2228 250° West 309 356 9,900 -540 Descending Chicago Center
08:09PM 42.3661 -87.2761 214° Southwest 296 341 9,000 -480 Descending Chicago Center
08:10PM 42.2697 -87.2822 183° South 296 341 9,000 -540 Level Chicago Center
08:11PM 42.1900 -87.2878 183° South 290 334 7,900 -1,020 Descending Chicago Center
08:12PM 42.1133 -87.3017 188° South 283 326 7,000 -480 Descending Chicago Center
08:14PM 42.0383 -87.3269 194° South 280 322 7,000  Level Chicago Center
08:15PM 41.9989 -87.3842 227° Southwest 228 262 7,000 -60 Level Chicago Center
08:16PM 41.9811 -87.4603 253° West 215 247 6,900 -720 Descending Chicago Center
08:17PM 41.9828 -87.5481 271° West 198 228 5,600 -1,140 Descending Chicago Center
08:18PM 41.9831 -87.6147 270° West 183 211 4,600 -1,020 Descending Chicago Center
08:19PM 41.9839 -87.6858 271° West 188 216 3,500 -1,020 Descending Chicago Center
08:20PM 41.9844 -87.7542 271° West 189 217 2,600 -960 Descending Chicago Center
08:21PM 41.9842 -87.8303 270° West 181 208 1,600 -720 Descending Chicago Center
08:22PM 41.9839 -87.8697 269° West 158 182 1,200 -420 Descending Chicago Center